METAR Data
IDs: Format: Raw Decoded Include TAF

Data at: 0635 UTC 23 Feb 2019

KPRX 230625Z AUTO 12006KT 1/2SM FG OVC003 11/11 A2987 RMK AO2
KPRX 230556Z AUTO 13005KT 1/4SM FG OVC003 11/11 A2988 RMK AO2 SLP137 T01060106 10111 20106 401110061 58013
KPRX 230456Z AUTO 13003KT 1/4SM FG OVC003 11/11 A2991 RMK AO2 SLP148 T01060106
KPRX 230451Z AUTO 15005KT 1/4SM FG OVC003 11/11 A2991 RMK AO2
KPRX 230411Z AUTO 12007KT 1/2SM FG OVC003 11/11 A2992 RMK AO2
KPRX 230356Z AUTO 13006KT 1/4SM FG OVC003 11/11 A2992 RMK AO2 SLP150 T01110111
KPRX 230321Z AUTO 12006KT 1/4SM FG OVC003 11/11 A2992 RMK AO2
KPRX 230304Z AUTO 12007KT 1/2SM FG OVC003 11/11 A2992 RMK AO2
KPRX 230256Z AUTO 12007KT 3/4SM BR OVC003 11/11 A2992 RMK AO2 SLP148 T01110111 56005
KPRX 230251Z AUTO 12008KT 3/4SM BR OVC003 11/11 A2992 RMK AO2
KPRX 230245Z AUTO 11008KT 1 1/4SM BR OVC003 11/11 A2991 RMK AO2
KPRX 230238Z AUTO 12007KT 2SM BR OVC003 11/11 A2991 RMK AO2
KPRX 230156Z AUTO 12008KT 3SM BR OVC003 11/11 A2992 RMK AO2 SLP148 T01060106
KPRX 230056Z AUTO 11007KT 10SM OVC003 11/11 A2993 RMK AO2 SLP151 T01060106
KPRX 230017Z AUTO 09006KT 9SM OVC003 11/11 A2993 RMK AO2
KPRX 222356Z AUTO 10009KT 10SM OVC005 11/11 A2993 RMK AO2 SLP154 60005 T01060106 10106 20078 58005
KPRX 222256Z AUTO 09007KT 10SM OVC005 11/10 A2994 RMK AO2 SLP155 T01060100
KPRX 222156Z AUTO 09008KT 10SM OVC005 10/09 A2995 RMK AO2 SLP159 T01000094
KPRX 222056Z AUTO 06010KT 8SM OVC005 09/09 A2995 RMK AO2 PRESFR SLP159 60005 T00940094 58031
KPRX 222045Z AUTO 08009KT 3SM BR OVC005 09/09 A2997 RMK AO2
KPRX 222037Z AUTO 07007KT 1 3/4SM BR OVC005 09/09 A2998 RMK AO2
KPRX 221956Z AUTO 06010KT 10SM OVC005 09/09 A2998 RMK AO2 RAB1859E16 PRESFR SLP170 P0004 T00940089
KPRX 221941Z AUTO 08010KT 10SM OVC005 09/09 A3001 RMK AO2 RAB1859E16 P0004
KPRX 221856Z AUTO 05009KT 5SM BR OVC003 08/08 A3003 RMK AO2 RAB30E54 SLP186 P0001 T00830083
KPRX 221853Z AUTO 06006KT 4SM -RA BR OVC003 08/08 A3004 RMK AO2 RAB30 P0001
KPRX 221845Z AUTO 06010KT 2 1/2SM -RA BR OVC003 08/08 A3004 RMK AO2 RAB30 P0001
KPRX 221816Z AUTO 05007KT 1 1/4SM BR OVC003 08/08 A3007 RMK AO2 LTG DSNT S
KPRX 221756Z AUTO 05008KT 1SM BR OVC003 08/08 A3006 RMK AO2 LTG DSNT SW SLP199 60000 T00780078 10078 20061 50008
KPRX 221738Z AUTO 05007KT 1SM BR OVC003 08/08 A3008 RMK AO2
KPRX 221656Z AUTO 01005KT 3/4SM BR OVC003 08/08 A3007 RMK AO2 SLP202 T00780078
KPRX 221638Z AUTO 33003KT 3/4SM BR OVC003 08/07 A3009 RMK AO2
KPRX 221556Z AUTO 04003KT 1SM BR OVC003 07/07 A3007 RMK AO2 PRESRR SLP201 T00720072
KPRX 221543Z AUTO 09008KT 1 3/4SM BR OVC003 07/07 A3004 RMK AO2
KPRX 221456Z AUTO 11012KT 2 1/2SM BR OVC003 07/07 A3004 RMK AO2 SLP191 60000 T00670067 55000
KPRX 221431Z AUTO 10006KT 3SM BR OVC003 07/07 A3005 RMK AO2
KPRX 221356Z AUTO 11013KT 2SM BR OVC003 07/07 A3001 RMK AO2 SLP181 T00670067
KPRX 221312Z AUTO 09010KT 2 1/2SM BR OVC003 06/06 A3002 RMK AO2
KPRX 221256Z AUTO 09010KT 3SM BR OVC003 07/06 A3002 RMK AO2 RAE17 SLP184 P0000 T00670061
KPRX 221214Z AUTO 07009KT 3SM -RA BR OVC003 06/06 A3003 RMK AO2 P0000
KPRX 221156Z AUTO 07007KT 2 1/2SM -RA BR OVC003 06/06 A3004 RMK AO2 RAB25 SLP192 P0000 60000 70028 T00610061 10067 20061 51006
KPRX 221141Z AUTO 06005KT 2SM -RA BR OVC003 06/06 A3004 RMK AO2 RAB25 CIG 003V006 P0000
KPRX 221122Z AUTO 07006KT 2SM BR OVC005 06/06 A3003 RMK AO2
KPRX 221056Z AUTO 09004KT 5SM BR OVC005 07/06 A3003 RMK AO2 SLP188 T00670061
KPRX 220956Z AUTO VRB03KT 10SM OVC005 07/06 A3004 RMK AO2 RAE02 SLP193 P0000 T00670061
KPRX 220945Z AUTO 07005KT 10SM OVC005 07/06 A3003 RMK AO2 RAE02 P0000
KPRX 220856Z AUTO 11010KT 10SM -RA OVC007 06/06 A3002 RMK AO2 RAB45 SLP185 P0000 60000 T00610056 58018
KPRX 220756Z AUTO 09007KT 10SM OVC009 07/06 A3007 RMK AO2 SLP200 T00670056
KPRX 220656Z AUTO 00000KT 10SM OVC009 07/06 A3007 RMK AO2 SLP200 T00670056
KPRX 220556Z AUTO 28009KT 10SM OVC007 07/06 A3008 RMK AO2 PK WND 12028/0503 RAE12 SLP204 P0000 60001 T00670056 10067 20061 400780022 53009
KPRX 220456Z AUTO 11023G38KT 10SM -RA BKN009 BKN080 OVC100 06/06 A2996 RMK AO2 PK WND 11038/0452 CIG 007V011 SLP163 P0001 T00610056
KPRX 220356Z AUTO 08013KT 10SM -RA OVC011 07/05 A3007 RMK AO2 RAB20 SLP200 P0000 T00670050
KPRX 220256Z AUTO 08010KT 10SM OVC013 07/05 A3005 RMK AO2 SLP194 T00670050 51013
KPRX 220223Z AUTO 09015KT 10SM BKN013 OVC035 07/05 A3001 RMK AO2
KPRX 220156Z AUTO 09010KT 10SM OVC015 07/05 A3004 RMK AO2 SLP190 T00670050
KPRX 220056Z AUTO 08008KT 10SM BKN015 OVC044 07/05 A3004 RMK AO2 SLP188 T00670050
KPRX 220029Z AUTO 09013KT 10SM BKN017 OVC048 07/05 A3002 RMK AO2
KPRX 212356Z AUTO 08008KT 10SM FEW016 OVC050 07/05 A3001 RMK AO2 SLP179 60026 T00670050 10072 20061 58002
KPRX 212256Z AUTO 09012KT 10SM OVC060 07/05 A3003 RMK AO2 RAB00E16 SLP186 P0000 T00720050
KPRX 212156Z AUTO 10011G18KT 10SM FEW026 SCT042 OVC100 07/05 A3001 RMK AO2 RAE56 SLP180 P0001 T00670050
KPRX 212008Z AUTO 10012KT 10SM -RA SCT050 OVC065 07/05 A3004 RMK AO2 LTG DSNT SW TSE02 P0001
KPRX 211956Z AUTO 09016G21KT 10SM -TSRA FEW029 BKN070 OVC100 07/05 A3002 RMK AO2 LTG DSNT SW TSB47 SLP181 P0013 T00670050
KPRX 211953Z AUTO 09014G20KT 10SM -TSRA FEW029 BKN070 OVC100 07/06 A3002 RMK AO2 LTG DSNT SW TSB47 PRESFR P0013
KPRX 211856Z AUTO 09011KT 10SM -RA FEW032 OVC085 07/06 A3007 RMK AO2 SLP202 P0005 T00670056